sensor_id;sensor_type;location;lat;lon;timestamp;P1;durP1;ratioP1;P2;durP2;ratioP2
34296;SDS011;20564;42.902;25.336;2022-09-01T00:02:28;5.38;;;2.17;;
34296;SDS011;20564;42.902;25.336;2022-09-01T00:04:57;6.40;;;2.72;;
34296;SDS011;20564;42.902;25.336;2022-09-01T00:07:26;5.47;;;2.17;;
34296;SDS011;20564;42.902;25.336;2022-09-01T00:09:58;4.38;;;1.70;;
34296;SDS011;20564;42.902;25.336;2022-09-01T00:12:26;5.53;;;2.28;;
34296;SDS011;20564;42.902;25.336;2022-09-01T00:14:55;5.10;;;1.92;;
34296;SDS011;20564;42.902;25.336;2022-09-01T00:17:24;5.45;;;1.98;;
34296;SDS011;20564;42.902;25.336;2022-09-01T00:19:52;4.25;;;1.67;;
34296;SDS011;20564;42.902;25.336;2022-09-01T00:24:47;7.35;;;2.53;;
34296;SDS011;20564;42.902;25.336;2022-09-01T00:27:14;4.63;;;1.90;;
34296;SDS011;20564;42.902;25.336;2022-09-01T00:29:43;5.88;;;2.10;;
34296;SDS011;20564;42.902;25.336;2022-09-01T00:32:10;4.30;;;2.10;;
34296;SDS011;20564;42.902;25.336;2022-09-01T00:37:05;7.47;;;2.85;;
34296;SDS011;20564;42.902;25.336;2022-09-01T00:39:33;5.63;;;1.73;;
34296;SDS011;20564;42.902;25.336;2022-09-01T00:42:00;6.65;;;2.80;;
34296;SDS011;20564;42.902;25.336;2022-09-01T00:44:27;6.40;;;2.13;;
34296;SDS011;20564;42.902;25.336;2022-09-01T00:46:57;4.40;;;2.03;;
34296;SDS011;20564;42.902;25.336;2022-09-01T00:54:45;6.40;;;2.35;;
34296;SDS011;20564;42.902;25.336;2022-09-01T00:57:16;5.32;;;2.45;;
34296;SDS011;20564;42.902;25.336;2022-09-01T01:02:15;5.18;;;2.13;;
34296;SDS011;20564;42.902;25.336;2022-09-01T01:04:43;5.50;;;2.33;;
34296;SDS011;20564;42.902;25.336;2022-09-01T01:07:11;3.78;;;1.77;;
34296;SDS011;20564;42.902;25.336;2022-09-01T01:09:41;6.13;;;2.00;;
34296;SDS011;20564;42.902;25.336;2022-09-01T01:12:10;3.50;;;2.10;;
34296;SDS011;20564;42.902;25.336;2022-09-01T01:14:39;3.38;;;1.55;;
34296;SDS011;20564;42.902;25.336;2022-09-01T01:17:11;5.40;;;2.22;;
34296;SDS011;20564;42.902;25.336;2022-09-01T01:19:41;4.32;;;2.25;;
34296;SDS011;20564;42.902;25.336;2022-09-01T01:23:07;4.07;;;1.83;;
34296;SDS011;20564;42.902;25.336;2022-09-01T01:25:57;5.32;;;2.28;;
34296;SDS011;20564;42.902;25.336;2022-09-01T01:28:26;5.25;;;1.60;;
34296;SDS011;20564;42.902;25.336;2022-09-01T01:31:05;5.60;;;1.83;;
34296;SDS011;20564;42.902;25.336;2022-09-01T01:33:42;5.80;;;1.73;;
34296;SDS011;20564;42.902;25.336;2022-09-01T01:36:19;4.20;;;1.70;;
34296;SDS011;20564;42.902;25.336;2022-09-01T01:38:52;8.15;;;2.13;;
34296;SDS011;20564;42.902;25.336;2022-09-01T01:41:21;5.05;;;2.10;;
34296;SDS011;20564;42.902;25.336;2022-09-01T01:43:50;3.97;;;1.70;;
34296;SDS011;20564;42.902;25.336;2022-09-01T01:46:18;3.60;;;1.60;;
34296;SDS011;20564;42.902;25.336;2022-09-01T01:48:48;4.25;;;1.75;;
34296;SDS011;20564;42.902;25.336;2022-09-01T01:51:18;6.90;;;2.38;;
34296;SDS011;20564;42.902;25.336;2022-09-01T01:53:50;6.85;;;2.17;;
34296;SDS011;20564;42.902;25.336;2022-09-01T01:58:45;9.43;;;3.03;;
34296;SDS011;20564;42.902;25.336;2022-09-01T02:01:12;6.85;;;2.70;;
34296;SDS011;20564;42.902;25.336;2022-09-01T02:03:43;4.70;;;1.88;;
34296;SDS011;20564;42.902;25.336;2022-09-01T02:06:10;6.55;;;3.08;;
34296;SDS011;20564;42.902;25.336;2022-09-01T02:08:37;4.63;;;1.92;;
34296;SDS011;20564;42.902;25.336;2022-09-01T02:11:06;7.70;;;1.85;;
34296;SDS011;20564;42.902;25.336;2022-09-01T02:13:34;6.32;;;2.63;;
34296;SDS011;20564;42.902;25.336;2022-09-01T02:16:02;5.22;;;2.05;;
34296;SDS011;20564;42.902;25.336;2022-09-01T02:18:40;4.95;;;2.20;;
34296;SDS011;20564;42.902;25.336;2022-09-01T02:21:10;5.50;;;2.13;;
34296;SDS011;20564;42.902;25.336;2022-09-01T02:23:44;3.75;;;1.63;;
34296;SDS011;20564;42.902;25.336;2022-09-01T02:26:14;7.40;;;2.92;;
34296;SDS011;20564;42.902;25.336;2022-09-01T02:28:44;5.55;;;2.00;;
34296;SDS011;20564;42.902;25.336;2022-09-01T02:31:21;7.38;;;1.63;;
34296;SDS011;20564;42.902;25.336;2022-09-01T02:33:49;4.68;;;2.17;;
34296;SDS011;20564;42.902;25.336;2022-09-01T02:36:17;6.00;;;2.63;;
34296;SDS011;20564;42.902;25.336;2022-09-01T02:38:46;5.35;;;2.10;;
34296;SDS011;20564;42.902;25.336;2022-09-01T02:41:19;4.38;;;1.73;;
34296;SDS011;20564;42.902;25.336;2022-09-01T02:43:49;4.95;;;1.67;;
34296;SDS011;20564;42.902;25.336;2022-09-01T02:46:16;4.40;;;1.85;;
34296;SDS011;20564;42.902;25.336;2022-09-01T02:48:45;6.45;;;2.60;;
34296;SDS011;20564;42.902;25.336;2022-09-01T02:51:15;6.50;;;2.42;;
34296;SDS011;20564;42.902;25.336;2022-09-01T02:53:45;5.97;;;2.08;;
34296;SDS011;20564;42.902;25.336;2022-09-01T02:56:21;7.03;;;2.67;;
34296;SDS011;20564;42.902;25.336;2022-09-01T03:02:37;8.40;;;2.08;;
34296;SDS011;20564;42.902;25.336;2022-09-01T03:05:18;4.57;;;2.03;;
34296;SDS011;20564;42.902;25.336;2022-09-01T03:07:56;6.07;;;1.95;;
34296;SDS011;20564;42.902;25.336;2022-09-01T03:10:34;6.55;;;2.47;;
34296;SDS011;20564;42.902;25.336;2022-09-01T03:13:12;6.22;;;2.30;;
34296;SDS011;20564;42.902;25.336;2022-09-01T03:15:42;5.93;;;1.92;;
34296;SDS011;20564;42.902;25.336;2022-09-01T03:18:11;5.57;;;2.35;;
34296;SDS011;20564;42.902;25.336;2022-09-01T03:20:41;5.43;;;2.22;;
34296;SDS011;20564;42.902;25.336;2022-09-01T03:23:10;5.30;;;2.38;;
34296;SDS011;20564;42.902;25.336;2022-09-01T03:25:45;4.40;;;1.98;;
34296;SDS011;20564;42.902;25.336;2022-09-01T03:28:13;7.32;;;2.08;;
34296;SDS011;20564;42.902;25.336;2022-09-01T03:30:49;5.28;;;2.03;;
34296;SDS011;20564;42.902;25.336;2022-09-01T03:33:18;7.53;;;2.30;;
34296;SDS011;20564;42.902;25.336;2022-09-01T03:35:48;4.55;;;1.65;;
34296;SDS011;20564;42.902;25.336;2022-09-01T03:38:15;7.57;;;2.35;;
34296;SDS011;20564;42.902;25.336;2022-09-01T03:40:46;5.05;;;2.30;;
34296;SDS011;20564;42.902;25.336;2022-09-01T03:43:15;4.75;;;2.30;;
34296;SDS011;20564;42.902;25.336;2022-09-01T03:45:44;6.05;;;1.90;;
34296;SDS011;20564;42.902;25.336;2022-09-01T03:50:42;4.97;;;2.22;;
34296;SDS011;20564;42.902;25.336;2022-09-01T03:53:12;5.82;;;2.10;;
34296;SDS011;20564;42.902;25.336;2022-09-01T03:55:43;6.20;;;1.73;;
34296;SDS011;20564;42.902;25.336;2022-09-01T03:58:15;6.32;;;2.15;;
34296;SDS011;20564;42.902;25.336;2022-09-01T04:00:48;6.05;;;2.65;;
34296;SDS011;20564;42.902;25.336;2022-09-01T04:03:25;5.93;;;2.53;;
34296;SDS011;20564;42.902;25.336;2022-09-01T04:05:57;8.00;;;1.50;;
34296;SDS011;20564;42.902;25.336;2022-09-01T04:08:27;8.15;;;3.05;;
34296;SDS011;20564;42.902;25.336;2022-09-01T04:10:59;4.53;;;2.38;;
34296;SDS011;20564;42.902;25.336;2022-09-01T04:13:36;7.13;;;2.22;;
34296;SDS011;20564;42.902;25.336;2022-09-01T04:16:05;5.10;;;1.95;;
34296;SDS011;20564;42.902;25.336;2022-09-01T04:18:56;13.35;;;2.75;;
34296;SDS011;20564;42.902;25.336;2022-09-01T04:21:25;6.30;;;2.30;;
34296;SDS011;20564;42.902;25.336;2022-09-01T04:23:53;5.72;;;2.08;;
34296;SDS011;20564;42.902;25.336;2022-09-01T04:26:23;4.95;;;1.80;;
34296;SDS011;20564;42.902;25.336;2022-09-01T04:28:54;6.88;;;2.53;;
34296;SDS011;20564;42.902;25.336;2022-09-01T04:31:21;19.80;;;2.17;;
34296;SDS011;20564;42.902;25.336;2022-09-01T04:33:50;6.35;;;1.90;;
34296;SDS011;20564;42.902;25.336;2022-09-01T04:36:22;4.70;;;1.95;;
34296;SDS011;20564;42.902;25.336;2022-09-01T04:38:56;5.35;;;2.28;;
34296;SDS011;20564;42.902;25.336;2022-09-01T04:41:31;5.88;;;2.47;;
34296;SDS011;20564;42.902;25.336;2022-09-01T04:43:59;6.40;;;2.13;;
34296;SDS011;20564;42.902;25.336;2022-09-01T04:46:31;5.18;;;1.92;;
34296;SDS011;20564;42.902;25.336;2022-09-01T04:49:01;5.05;;;2.25;;
34296;SDS011;20564;42.902;25.336;2022-09-01T04:51:42;5.25;;;2.20;;
34296;SDS011;20564;42.902;25.336;2022-09-01T04:54:18;5.22;;;2.67;;
34296;SDS011;20564;42.902;25.336;2022-09-01T04:56:47;4.65;;;2.45;;
34296;SDS011;20564;42.902;25.336;2022-09-01T04:59:21;4.95;;;2.15;;
34296;SDS011;20564;42.902;25.336;2022-09-01T05:01:52;8.30;;;2.90;;
34296;SDS011;20564;42.902;25.336;2022-09-01T05:04:24;7.60;;;2.90;;
34296;SDS011;20564;42.902;25.336;2022-09-01T05:06:55;10.27;;;3.03;;
34296;SDS011;20564;42.902;25.336;2022-09-01T05:09:30;8.00;;;3.28;;
34296;SDS011;20564;42.902;25.336;2022-09-01T05:12:01;6.38;;;2.55;;
34296;SDS011;20564;42.902;25.336;2022-09-01T05:14:45;6.78;;;3.20;;
34296;SDS011;20564;42.902;25.336;2022-09-01T05:17:14;8.65;;;3.10;;
34296;SDS011;20564;42.902;25.336;2022-09-01T05:19:43;7.20;;;3.00;;
34296;SDS011;20564;42.902;25.336;2022-09-01T05:22:13;7.40;;;2.65;;
34296;SDS011;20564;42.902;25.336;2022-09-01T05:24:41;6.20;;;2.20;;
34296;SDS011;20564;42.902;25.336;2022-09-01T05:27:08;5.57;;;2.45;;
34296;SDS011;20564;42.902;25.336;2022-09-01T05:29:36;7.13;;;2.20;;
34296;SDS011;20564;42.902;25.336;2022-09-01T05:32:04;5.03;;;2.17;;
34296;SDS011;20564;42.902;25.336;2022-09-01T05:34:35;5.43;;;2.20;;
34296;SDS011;20564;42.902;25.336;2022-09-01T05:37:06;8.15;;;2.58;;
34296;SDS011;20564;42.902;25.336;2022-09-01T05:39:35;4.47;;;1.95;;
34296;SDS011;20564;42.902;25.336;2022-09-01T05:42:04;6.68;;;2.17;;
34296;SDS011;20564;42.902;25.336;2022-09-01T05:44:34;5.03;;;2.30;;
34296;SDS011;20564;42.902;25.336;2022-09-01T05:47:02;3.53;;;1.67;;
34296;SDS011;20564;42.902;25.336;2022-09-01T05:49:30;3.72;;;1.80;;
34296;SDS011;20564;42.902;25.336;2022-09-01T05:51:58;3.92;;;1.63;;
34296;SDS011;20564;42.902;25.336;2022-09-01T05:54:26;5.47;;;2.42;;
34296;SDS011;20564;42.902;25.336;2022-09-01T05:56:55;5.40;;;2.35;;
34296;SDS011;20564;42.902;25.336;2022-09-01T05:59:38;8.95;;;2.78;;
34296;SDS011;20564;42.902;25.336;2022-09-01T06:02:07;7.68;;;2.30;;
34296;SDS011;20564;42.902;25.336;2022-09-01T06:04:36;5.47;;;2.10;;
34296;SDS011;20564;42.902;25.336;2022-09-01T06:07:06;5.60;;;2.50;;
34296;SDS011;20564;42.902;25.336;2022-09-01T06:09:39;5.80;;;2.40;;
34296;SDS011;20564;42.902;25.336;2022-09-01T06:12:08;7.85;;;2.65;;
34296;SDS011;20564;42.902;25.336;2022-09-01T06:14:44;5.03;;;2.13;;
34296;SDS011;20564;42.902;25.336;2022-09-01T06:17:12;7.50;;;2.20;;
34296;SDS011;20564;42.902;25.336;2022-09-01T06:19:42;7.50;;;1.95;;
34296;SDS011;20564;42.902;25.336;2022-09-01T06:22:09;7.57;;;2.92;;
34296;SDS011;20564;42.902;25.336;2022-09-01T06:24:37;6.90;;;1.92;;
34296;SDS011;20564;42.902;25.336;2022-09-01T06:27:11;6.90;;;2.22;;
34296;SDS011;20564;42.902;25.336;2022-09-01T06:29:38;4.05;;;1.98;;
34296;SDS011;20564;42.902;25.336;2022-09-01T06:32:06;6.65;;;2.08;;
34296;SDS011;20564;42.902;25.336;2022-09-01T06:34:38;6.03;;;2.10;;
34296;SDS011;20564;42.902;25.336;2022-09-01T06:37:11;4.97;;;1.95;;
34296;SDS011;20564;42.902;25.336;2022-09-01T06:39:38;5.85;;;1.70;;
34296;SDS011;20564;42.902;25.336;2022-09-01T06:42:05;4.63;;;2.13;;
34296;SDS011;20564;42.902;25.336;2022-09-01T06:44:35;6.68;;;2.30;;
34296;SDS011;20564;42.902;25.336;2022-09-01T06:47:06;6.03;;;2.00;;
34296;SDS011;20564;42.902;25.336;2022-09-01T06:49:34;4.80;;;1.70;;
34296;SDS011;20564;42.902;25.336;2022-09-01T06:52:02;4.68;;;1.77;;
34296;SDS011;20564;42.902;25.336;2022-09-01T06:54:31;5.45;;;2.13;;
34296;SDS011;20564;42.902;25.336;2022-09-01T06:57:01;4.45;;;1.73;;
34296;SDS011;20564;42.902;25.336;2022-09-01T06:59:49;4.03;;;1.65;;
34296;SDS011;20564;42.902;25.336;2022-09-01T07:02:19;8.25;;;2.20;;
34296;SDS011;20564;42.902;25.336;2022-09-01T07:04:52;5.43;;;2.08;;
34296;SDS011;20564;42.902;25.336;2022-09-01T07:10:07;3.55;;;1.48;;
34296;SDS011;20564;42.902;25.336;2022-09-01T07:12:52;4.03;;;1.75;;
34296;SDS011;20564;42.902;25.336;2022-09-01T07:15:37;6.13;;;1.88;;
34296;SDS011;20564;42.902;25.336;2022-09-01T07:18:29;4.07;;;1.67;;
34296;SDS011;20564;42.902;25.336;2022-09-01T07:20:57;3.90;;;1.45;;
34296;SDS011;20564;42.902;25.336;2022-09-01T07:23:33;3.47;;;1.50;;
34296;SDS011;20564;42.902;25.336;2022-09-01T07:26:20;7.65;;;1.60;;
34296;SDS011;20564;42.902;25.336;2022-09-01T07:28:51;6.40;;;1.85;;
34296;SDS011;20564;42.902;25.336;2022-09-01T07:31:28;5.82;;;1.60;;
34296;SDS011;20564;42.902;25.336;2022-09-01T07:34:21;5.28;;;1.95;;
34296;SDS011;20564;42.902;25.336;2022-09-01T07:37:06;7.15;;;1.92;;
34296;SDS011;20564;42.902;25.336;2022-09-01T07:40:12;4.55;;;1.40;;
34296;SDS011;20564;42.902;25.336;2022-09-01T07:43:15;4.80;;;1.77;;
34296;SDS011;20564;42.902;25.336;2022-09-01T07:45:48;3.88;;;1.75;;
34296;SDS011;20564;42.902;25.336;2022-09-01T07:48:26;3.60;;;1.40;;
34296;SDS011;20564;42.902;25.336;2022-09-01T07:51:17;5.55;;;2.08;;
34296;SDS011;20564;42.902;25.336;2022-09-01T07:54:03;4.97;;;1.58;;
34296;SDS011;20564;42.902;25.336;2022-09-01T07:56:31;3.88;;;2.10;;
34296;SDS011;20564;42.902;25.336;2022-09-01T07:59:05;4.68;;;1.70;;
34296;SDS011;20564;42.902;25.336;2022-09-01T08:01:35;4.10;;;1.88;;
34296;SDS011;20564;42.902;25.336;2022-09-01T08:04:02;4.18;;;1.58;;
34296;SDS011;20564;42.902;25.336;2022-09-01T08:06:30;4.43;;;1.63;;
34296;SDS011;20564;42.902;25.336;2022-09-01T08:09:06;4.35;;;1.65;;
34296;SDS011;20564;42.902;25.336;2022-09-01T08:11:37;4.55;;;2.03;;
34296;SDS011;20564;42.902;25.336;2022-09-01T08:14:24;2.97;;;1.40;;
34296;SDS011;20564;42.902;25.336;2022-09-01T08:16:52;3.50;;;1.60;;
34296;SDS011;20564;42.902;25.336;2022-09-01T08:19:41;3.97;;;1.25;;
34296;SDS011;20564;42.902;25.336;2022-09-01T08:22:09;6.70;;;2.03;;
34296;SDS011;20564;42.902;25.336;2022-09-01T08:24:36;4.10;;;1.33;;
34296;SDS011;20564;42.902;25.336;2022-09-01T08:29:31;3.33;;;1.65;;
34296;SDS011;20564;42.902;25.336;2022-09-01T08:31:58;2.28;;;1.42;;
34296;SDS011;20564;42.902;25.336;2022-09-01T08:34:26;4.72;;;1.58;;
34296;SDS011;20564;42.902;25.336;2022-09-01T08:36:53;3.28;;;1.50;;
34296;SDS011;20564;42.902;25.336;2022-09-01T08:39:20;4.63;;;1.83;;
34296;SDS011;20564;42.902;25.336;2022-09-01T08:44:53;4.38;;;1.58;;
34296;SDS011;20564;42.902;25.336;2022-09-01T08:47:32;4.45;;;1.48;;
34296;SDS011;20564;42.902;25.336;2022-09-01T08:50:19;3.30;;;1.30;;
34296;SDS011;20564;42.902;25.336;2022-09-01T08:52:54;3.42;;;1.50;;
34296;SDS011;20564;42.902;25.336;2022-09-01T08:55:39;3.28;;;1.23;;
34296;SDS011;20564;42.902;25.336;2022-09-01T08:58:10;3.55;;;1.88;;
34296;SDS011;20564;42.902;25.336;2022-09-01T09:00:41;3.22;;;1.42;;
34296;SDS011;20564;42.902;25.336;2022-09-01T09:14:33;5.03;;;1.75;;
34296;SDS011;20564;42.902;25.336;2022-09-01T09:17:08;3.90;;;1.60;;
34296;SDS011;20564;42.902;25.336;2022-09-01T09:19:38;4.22;;;1.70;;
34296;SDS011;20564;42.902;25.336;2022-09-01T09:22:07;4.55;;;1.50;;
34296;SDS011;20564;42.902;25.336;2022-09-01T09:27:17;5.80;;;1.90;;
34296;SDS011;20564;42.902;25.336;2022-09-01T09:29:57;4.13;;;1.60;;
34296;SDS011;20564;42.902;25.336;2022-09-01T09:32:49;4.18;;;1.70;;
34296;SDS011;20564;42.902;25.336;2022-09-01T09:36:10;4.57;;;1.38;;
34296;SDS011;20564;42.902;25.336;2022-09-01T09:41:38;3.42;;;1.48;;
34296;SDS011;20564;42.902;25.336;2022-09-01T09:46:55;4.40;;;1.52;;
34296;SDS011;20564;42.902;25.336;2022-09-01T09:49:24;4.50;;;2.00;;
34296;SDS011;20564;42.902;25.336;2022-09-01T09:52:16;4.57;;;1.77;;
34296;SDS011;20564;42.902;25.336;2022-09-01T09:55:01;3.28;;;1.75;;
34296;SDS011;20564;42.902;25.336;2022-09-01T09:57:32;4.70;;;1.65;;
34296;SDS011;20564;42.902;25.336;2022-09-01T10:00:07;4.85;;;1.60;;
34296;SDS011;20564;42.902;25.336;2022-09-01T10:02:58;4.70;;;1.48;;
34296;SDS011;20564;42.902;25.336;2022-09-01T10:05:38;2.72;;;1.25;;
34296;SDS011;20564;42.902;25.336;2022-09-01T10:10:54;3.17;;;1.60;;
34296;SDS011;20564;42.902;25.336;2022-09-01T10:13:24;3.42;;;1.38;;
34296;SDS011;20564;42.902;25.336;2022-09-01T10:16:00;3.95;;;1.88;;
34296;SDS011;20564;42.902;25.336;2022-09-01T10:18:37;4.03;;;1.50;;
34296;SDS011;20564;42.902;25.336;2022-09-01T10:21:07;3.47;;;1.50;;
34296;SDS011;20564;42.902;25.336;2022-09-01T10:23:39;6.43;;;2.00;;
34296;SDS011;20564;42.902;25.336;2022-09-01T10:28:43;4.35;;;1.80;;
34296;SDS011;20564;42.902;25.336;2022-09-01T10:31:17;5.95;;;1.75;;
34296;SDS011;20564;42.902;25.336;2022-09-01T10:33:46;3.75;;;1.58;;
34296;SDS011;20564;42.902;25.336;2022-09-01T10:36:14;3.45;;;1.52;;
34296;SDS011;20564;42.902;25.336;2022-09-01T10:38:42;4.55;;;2.10;;
34296;SDS011;20564;42.902;25.336;2022-09-01T10:42:04;3.70;;;1.52;;
34296;SDS011;20564;42.902;25.336;2022-09-01T10:47:11;4.07;;;1.73;;
34296;SDS011;20564;42.902;25.336;2022-09-01T10:49:57;13.50;;;2.85;;
34296;SDS011;20564;42.902;25.336;2022-09-01T10:55:21;3.45;;;1.35;;
34296;SDS011;20564;42.902;25.336;2022-09-01T10:57:56;4.28;;;1.55;;
34296;SDS011;20564;42.902;25.336;2022-09-01T11:01:00;4.38;;;1.98;;
34296;SDS011;20564;42.902;25.336;2022-09-01T11:03:48;5.78;;;1.85;;
34296;SDS011;20564;42.902;25.336;2022-09-01T11:06:33;5.18;;;1.85;;
34296;SDS011;20564;42.902;25.336;2022-09-01T11:09:33;3.88;;;1.52;;
34296;SDS011;20564;42.902;25.336;2022-09-01T11:14:47;4.38;;;1.90;;
34296;SDS011;20564;42.902;25.336;2022-09-01T11:17:36;2.58;;;1.40;;
34296;SDS011;20564;42.902;25.336;2022-09-01T11:28:38;3.25;;;1.70;;
34296;SDS011;20564;42.902;25.336;2022-09-01T11:47:47;3.88;;;1.60;;
34296;SDS011;20564;42.902;25.336;2022-09-01T11:50:19;4.93;;;1.50;;
34296;SDS011;20564;42.902;25.336;2022-09-01T11:52:56;4.45;;;1.55;;
34296;SDS011;20564;42.902;25.336;2022-09-01T11:55:31;3.92;;;1.67;;
34296;SDS011;20564;42.902;25.336;2022-09-01T11:58:00;3.17;;;1.60;;
34296;SDS011;20564;42.902;25.336;2022-09-01T12:00:32;4.03;;;1.88;;
34296;SDS011;20564;42.902;25.336;2022-09-01T12:03:05;5.38;;;2.03;;
34296;SDS011;20564;42.902;25.336;2022-09-01T12:05:46;3.88;;;1.52;;
34296;SDS011;20564;42.902;25.336;2022-09-01T12:08:20;3.28;;;1.50;;
34296;SDS011;20564;42.902;25.336;2022-09-01T12:10:49;6.65;;;2.00;;
34296;SDS011;20564;42.902;25.336;2022-09-01T12:13:21;4.95;;;2.10;;
34296;SDS011;20564;42.902;25.336;2022-09-01T12:15:56;4.75;;;1.65;;
34296;SDS011;20564;42.902;25.336;2022-09-01T12:18:46;4.28;;;1.73;;
34296;SDS011;20564;42.902;25.336;2022-09-01T12:21:20;3.78;;;1.55;;
34296;SDS011;20564;42.902;25.336;2022-09-01T12:26:41;4.60;;;1.80;;
34296;SDS011;20564;42.902;25.336;2022-09-01T12:29:09;3.95;;;1.75;;
34296;SDS011;20564;42.902;25.336;2022-09-01T12:31:39;4.35;;;1.45;;
34296;SDS011;20564;42.902;25.336;2022-09-01T12:37:10;2.92;;;1.33;;
34296;SDS011;20564;42.902;25.336;2022-09-01T12:39:52;2.20;;;1.08;;
34296;SDS011;20564;42.902;25.336;2022-09-01T12:44:51;5.18;;;1.30;;
34296;SDS011;20564;42.902;25.336;2022-09-01T12:50:00;4.13;;;2.25;;
34296;SDS011;20564;42.902;25.336;2022-09-01T12:53:01;2.80;;;1.38;;
34296;SDS011;20564;42.902;25.336;2022-09-01T12:55:39;3.20;;;1.27;;
34296;SDS011;20564;42.902;25.336;2022-09-01T12:58:18;6.03;;;1.85;;
34296;SDS011;20564;42.902;25.336;2022-09-01T13:01:04;4.03;;;1.63;;
34296;SDS011;20564;42.902;25.336;2022-09-01T13:04:04;6.38;;;1.50;;
34296;SDS011;20564;42.902;25.336;2022-09-01T13:06:54;2.90;;;1.40;;
34296;SDS011;20564;42.902;25.336;2022-09-01T13:09:26;3.45;;;1.52;;
34296;SDS011;20564;42.902;25.336;2022-09-01T13:12:07;8.63;;;2.25;;
34296;SDS011;20564;42.902;25.336;2022-09-01T13:14:36;4.90;;;1.50;;
34296;SDS011;20564;42.902;25.336;2022-09-01T13:17:04;9.13;;;0.95;;
34296;SDS011;20564;42.902;25.336;2022-09-01T13:19:39;4.03;;;1.35;;
34296;SDS011;20564;42.902;25.336;2022-09-01T13:22:06;1.50;;;1.05;;
34296;SDS011;20564;42.902;25.336;2022-09-01T13:24:33;11.65;;;1.92;;
34296;SDS011;20564;42.902;25.336;2022-09-01T13:32:15;2.97;;;1.10;;
34296;SDS011;20564;42.902;25.336;2022-09-01T13:34:45;2.38;;;1.10;;
34296;SDS011;20564;42.902;25.336;2022-09-01T13:37:17;3.10;;;1.33;;
34296;SDS011;20564;42.902;25.336;2022-09-01T13:39:47;3.65;;;1.27;;
34296;SDS011;20564;42.902;25.336;2022-09-01T13:42:15;3.15;;;1.08;;
34296;SDS011;20564;42.902;25.336;2022-09-01T13:44:43;2.97;;;1.00;;
34296;SDS011;20564;42.902;25.336;2022-09-01T13:47:17;1.92;;;0.80;;
34296;SDS011;20564;42.902;25.336;2022-09-01T13:49:54;1.95;;;0.77;;
34296;SDS011;20564;42.902;25.336;2022-09-01T13:52:39;2.88;;;0.85;;
34296;SDS011;20564;42.902;25.336;2022-09-01T13:55:24;2.55;;;0.90;;
34296;SDS011;20564;42.902;25.336;2022-09-01T13:57:53;3.80;;;1.10;;
34296;SDS011;20564;42.902;25.336;2022-09-01T14:00:24;2.13;;;0.73;;
34296;SDS011;20564;42.902;25.336;2022-09-01T14:02:55;3.70;;;1.02;;
34296;SDS011;20564;42.902;25.336;2022-09-01T14:05:29;3.20;;;1.23;;
34296;SDS011;20564;42.902;25.336;2022-09-01T14:07:59;2.67;;;0.88;;
34296;SDS011;20564;42.902;25.336;2022-09-01T14:10:28;2.35;;;0.93;;
34296;SDS011;20564;42.902;25.336;2022-09-01T14:12:59;2.85;;;1.00;;
34296;SDS011;20564;42.902;25.336;2022-09-01T14:15:26;3.60;;;1.02;;
34296;SDS011;20564;42.902;25.336;2022-09-01T14:17:54;2.00;;;0.80;;
34296;SDS011;20564;42.902;25.336;2022-09-01T14:20:25;1.63;;;0.63;;
34296;SDS011;20564;42.902;25.336;2022-09-01T14:23:03;1.67;;;0.85;;
34296;SDS011;20564;42.902;25.336;2022-09-01T14:25:32;2.28;;;0.80;;
34296;SDS011;20564;42.902;25.336;2022-09-01T14:28:00;4.05;;;0.93;;
34296;SDS011;20564;42.902;25.336;2022-09-01T14:30:29;2.03;;;0.98;;
34296;SDS011;20564;42.902;25.336;2022-09-01T14:32:58;2.17;;;0.82;;
34296;SDS011;20564;42.902;25.336;2022-09-01T14:35:26;1.05;;;0.63;;
34296;SDS011;20564;42.902;25.336;2022-09-01T14:37:54;4.05;;;1.08;;
34296;SDS011;20564;42.902;25.336;2022-09-01T14:40:33;1.42;;;0.60;;
34296;SDS011;20564;42.902;25.336;2022-09-01T14:43:04;4.82;;;1.30;;
34296;SDS011;20564;42.902;25.336;2022-09-01T14:45:35;2.03;;;1.00;;
34296;SDS011;20564;42.902;25.336;2022-09-01T14:48:05;5.43;;;1.45;;
34296;SDS011;20564;42.902;25.336;2022-09-01T14:50:37;3.85;;;1.50;;
34296;SDS011;20564;42.902;25.336;2022-09-01T14:53:07;5.47;;;1.48;;
34296;SDS011;20564;42.902;25.336;2022-09-01T14:55:35;2.20;;;0.95;;
34296;SDS011;20564;42.902;25.336;2022-09-01T14:58:02;2.55;;;1.20;;
34296;SDS011;20564;42.902;25.336;2022-09-01T15:00:31;4.63;;;1.23;;
34296;SDS011;20564;42.902;25.336;2022-09-01T15:03:01;1.35;;;0.82;;
34296;SDS011;20564;42.902;25.336;2022-09-01T15:05:29;4.43;;;1.38;;
34296;SDS011;20564;42.902;25.336;2022-09-01T15:08:05;1.50;;;0.70;;
34296;SDS011;20564;42.902;25.336;2022-09-01T15:10:33;2.17;;;0.85;;
34296;SDS011;20564;42.902;25.336;2022-09-01T15:13:02;3.83;;;1.40;;
34296;SDS011;20564;42.902;25.336;2022-09-01T15:15:30;1.98;;;0.88;;
34296;SDS011;20564;42.902;25.336;2022-09-01T15:17:58;1.80;;;0.88;;
34296;SDS011;20564;42.902;25.336;2022-09-01T15:20:28;2.03;;;0.57;;
34296;SDS011;20564;42.902;25.336;2022-09-01T15:23:17;3.70;;;1.15;;
34296;SDS011;20564;42.902;25.336;2022-09-01T15:25:47;1.38;;;0.85;;
34296;SDS011;20564;42.902;25.336;2022-09-01T15:28:19;3.05;;;1.08;;
34296;SDS011;20564;42.902;25.336;2022-09-01T15:30:48;2.67;;;1.38;;
34296;SDS011;20564;42.902;25.336;2022-09-01T15:33:15;1.67;;;1.00;;
34296;SDS011;20564;42.902;25.336;2022-09-01T15:35:44;3.97;;;1.48;;
34296;SDS011;20564;42.902;25.336;2022-09-01T15:38:15;3.47;;;1.52;;
34296;SDS011;20564;42.902;25.336;2022-09-01T15:40:44;2.67;;;1.00;;
34296;SDS011;20564;42.902;25.336;2022-09-01T15:43:23;2.63;;;1.00;;
34296;SDS011;20564;42.902;25.336;2022-09-01T15:45:51;4.05;;;1.00;;
34296;SDS011;20564;42.902;25.336;2022-09-01T15:48:18;2.97;;;1.02;;
34296;SDS011;20564;42.902;25.336;2022-09-01T15:50:45;2.97;;;0.90;;
34296;SDS011;20564;42.902;25.336;2022-09-01T15:53:13;1.73;;;0.80;;
34296;SDS011;20564;42.902;25.336;2022-09-01T15:55:41;1.70;;;0.88;;
34296;SDS011;20564;42.902;25.336;2022-09-01T15:58:13;2.25;;;0.98;;
34296;SDS011;20564;42.902;25.336;2022-09-01T16:00:42;2.45;;;0.73;;
34296;SDS011;20564;42.902;25.336;2022-09-01T16:03:10;2.50;;;1.08;;
34296;SDS011;20564;42.902;25.336;2022-09-01T16:05:38;3.15;;;0.82;;
34296;SDS011;20564;42.902;25.336;2022-09-01T16:08:06;3.53;;;1.17;;
34296;SDS011;20564;42.902;25.336;2022-09-01T16:10:37;2.63;;;1.08;;
34296;SDS011;20564;42.902;25.336;2022-09-01T16:13:05;2.33;;;0.80;;
34296;SDS011;20564;42.902;25.336;2022-09-01T16:23:21;5.97;;;1.15;;
34296;SDS011;20564;42.902;25.336;2022-09-01T16:25:57;1.70;;;0.90;;
34296;SDS011;20564;42.902;25.336;2022-09-01T16:28:33;2.15;;;0.75;;
34296;SDS011;20564;42.902;25.336;2022-09-01T16:33:58;3.08;;;1.30;;
34296;SDS011;20564;42.902;25.336;2022-09-01T16:36:36;3.45;;;1.30;;
34296;SDS011;20564;42.902;25.336;2022-09-01T16:39:43;2.38;;;1.02;;
34296;SDS011;20564;42.902;25.336;2022-09-01T16:56:00;2.80;;;1.02;;
34296;SDS011;20564;42.902;25.336;2022-09-01T16:58:47;3.90;;;1.60;;
34296;SDS011;20564;42.902;25.336;2022-09-01T17:04:21;2.40;;;1.17;;
34296;SDS011;20564;42.902;25.336;2022-09-01T17:12:50;3.33;;;1.40;;
34296;SDS011;20564;42.902;25.336;2022-09-01T17:15:32;3.05;;;1.30;;
34296;SDS011;20564;42.902;25.336;2022-09-01T17:21:00;3.90;;;1.33;;
34296;SDS011;20564;42.902;25.336;2022-09-01T17:23:36;2.55;;;1.40;;
34296;SDS011;20564;42.902;25.336;2022-09-01T17:26:16;3.85;;;1.38;;
34296;SDS011;20564;42.902;25.336;2022-09-01T17:28:59;2.55;;;1.10;;
34296;SDS011;20564;42.902;25.336;2022-09-01T17:43:50;2.65;;;1.13;;